KHSB/HSB METAR and TAF weather

Enter ICAO airport designator
Station Type Date Time Source
KHSB METAR 2021/05/12 04:35 UTC NOAA

KHSB 120435Z AUTO 04008KT 10SM OVC110 12/00 A3029 RMK AO2 T01201002


Station Type Date Time Source
KHSB Decoded METAR 2021/05/12 04:35 UTC NOAA

Harrisburg, Harrisburg-Raleigh Airport, IL, United States (KHSB) 37-48-41N 088-32-57W
May 12, 2021 - 12:35 AM EDT / 2021.05.12 0435 UTC
Wind: from the NE (040 degrees) at 9 MPH (8 KT):0
Visibility: 10 mile(s):0
Sky conditions: overcast
Temperature: 53.6 F (12.0 C)
Dew Point: 31.6 F (-0.2 C)
Relative Humidity: 42%
Pressure (altimeter): 30.29 in. Hg (1025 hPa)
ob: KHSB 120435Z AUTO 04008KT 10SM OVC110 12/00 A3029 RMK AO2 T01201002
cycle: 4

Station Type Date Time Source
KHSB TAF UTC NOAA

Error!

Example: see airport list